createdAt,value
2022-08-03T00:00:41.582Z,62.58
2022-08-03T00:03:27.371Z,62.73
2022-08-03T00:06:13.703Z,62.96
2022-08-03T00:08:59.259Z,62.89
2022-08-03T00:11:46.474Z,62.63
2022-08-03T00:14:32.686Z,62.73
2022-08-03T00:17:19.284Z,63.03
2022-08-03T00:20:05.321Z,62.98
2022-08-03T00:22:51.575Z,63.05
2022-08-03T00:25:37.659Z,63.21
2022-08-03T00:28:24.599Z,62.99
2022-08-03T00:31:13.536Z,63.17
2022-08-03T00:34:03.476Z,63.10
2022-08-03T00:36:53.189Z,63.19
2022-08-03T00:39:40.961Z,63.15
2022-08-03T00:42:27.822Z,63.27
2022-08-03T00:45:17.914Z,63.38
2022-08-03T00:48:05.407Z,63.57
2022-08-03T00:50:52.339Z,63.28
2022-08-03T00:53:40.222Z,63.32
2022-08-03T00:56:26.879Z,63.17
2022-08-03T00:59:17.296Z,63.11
2022-08-03T01:02:04.454Z,63.48
2022-08-03T01:04:51.490Z,63.02
2022-08-03T01:07:45.771Z,63.54
2022-08-03T01:10:57.697Z,63.62
2022-08-03T01:14:17.877Z,63.41
2022-08-03T01:17:13.747Z,63.52
2022-08-03T01:20:03.766Z,63.36
2022-08-03T01:22:58.728Z,63.39
2022-08-03T01:26:04.094Z,63.31
2022-08-03T01:29:02.174Z,63.59
2022-08-03T01:32:53.494Z,63.01
2022-08-03T01:35:27.434Z,63.36
2022-08-03T01:38:17.563Z,63.67
2022-08-03T01:41:07.215Z,63.33
2022-08-03T01:44:27.324Z,63.54
2022-08-03T01:47:00.787Z,63.58
2022-08-03T01:49:48.454Z,63.25
2022-08-03T01:52:37.437Z,63.13
2022-08-03T01:55:25.524Z,63.42
2022-08-03T01:58:14.134Z,63.45
2022-08-03T02:01:04.477Z,63.36
2022-08-03T02:04:00.143Z,63.63
2022-08-03T02:07:00.646Z,63.54
2022-08-03T02:09:51.708Z,63.14
2022-08-03T02:12:39.056Z,63.48
2022-08-03T02:15:25.777Z,63.59
2022-08-03T02:18:13.339Z,63.42
2022-08-03T02:21:05.522Z,63.47
2022-08-03T02:23:57.627Z,63.51
2022-08-03T02:26:44.267Z,63.44
2022-08-03T02:29:39.315Z,63.50
2022-08-03T02:32:31.874Z,63.32
2022-08-03T02:35:19.803Z,63.71
2022-08-03T02:38:08.304Z,63.75
2022-08-03T02:40:56.125Z,63.48
2022-08-03T02:44:06.722Z,63.12
2022-08-03T02:46:50.091Z,63.82
2022-08-03T02:49:49.811Z,63.23
2022-08-03T02:52:38.293Z,63.44
2022-08-03T02:55:27.327Z,63.31
2022-08-03T02:58:18.607Z,63.58
2022-08-03T03:01:04.968Z,64.06
2022-08-03T03:03:54.426Z,63.44
2022-08-03T03:06:42.433Z,63.75
2022-08-03T03:09:41.611Z,63.68
2022-08-03T03:12:29.737Z,63.92
2022-08-03T03:15:15.925Z,64.20
2022-08-03T03:18:03.100Z,64.06
2022-08-03T03:20:53.190Z,63.91
2022-08-03T03:23:41.258Z,64.57
2022-08-03T03:26:28.851Z,64.81
2022-08-03T03:29:15.924Z,64.32
2022-08-03T03:32:02.658Z,64.25
2022-08-03T03:34:49.613Z,64.13
2022-08-03T03:37:37.496Z,64.32
2022-08-03T03:40:23.122Z,64.52
2022-08-03T03:43:10.950Z,65.16
2022-08-03T03:45:58.336Z,65.24
2022-08-03T03:48:44.836Z,64.77
2022-08-03T03:51:31.010Z,64.84
2022-08-03T03:54:17.745Z,64.70
2022-08-03T03:57:03.688Z,64.37
2022-08-03T03:59:50.039Z,64.34
2022-08-03T04:02:36.465Z,64.10
2022-08-03T04:05:45.765Z,64.20
2022-08-03T04:08:50.864Z,63.71
2022-08-03T04:11:41.147Z,63.71
2022-08-03T04:14:30.117Z,63.29
2022-08-03T04:17:17.630Z,63.59
2022-08-03T04:20:04.995Z,63.63
2022-08-03T04:22:51.677Z,63.48
2022-08-03T04:25:40.724Z,63.92
2022-08-03T04:28:30.725Z,63.85
2022-08-03T04:31:23.485Z,64.38
2022-08-03T04:34:10.397Z,64.15
2022-08-03T04:37:00.431Z,64.22
2022-08-03T04:39:49.945Z,64.19
2022-08-03T04:42:36.910Z,64.20
2022-08-03T04:45:30.376Z,63.84
2022-08-03T04:48:17.758Z,63.77
2022-08-03T04:51:11.580Z,64.23
2022-08-03T04:53:59.672Z,63.80
2022-08-03T04:56:46.190Z,64.40
2022-08-03T04:59:33.312Z,64.40
2022-08-03T05:02:25.807Z,64.25
2022-08-03T05:05:12.140Z,64.74
2022-08-03T05:07:59.430Z,64.66
2022-08-03T05:10:47.688Z,65.18
2022-08-03T05:13:34.642Z,65.04
2022-08-03T05:16:21.512Z,64.69
2022-08-03T05:19:11.630Z,64.39
2022-08-03T05:21:59.232Z,63.38
2022-08-03T05:24:47.686Z,62.71
2022-08-03T05:27:34.139Z,62.15
2022-08-03T05:30:31.335Z,62.16
2022-08-03T05:33:20.362Z,62.21
2022-08-03T05:36:06.786Z,61.85
2022-08-03T05:38:53.133Z,61.48
2022-08-03T05:41:41.772Z,61.59
2022-08-03T05:44:38.847Z,61.18
2022-08-03T05:47:27.618Z,60.86
2022-08-03T05:50:14.718Z,60.69
2022-08-03T05:53:02.578Z,60.76
2022-08-03T05:55:54.776Z,60.49
2022-08-03T05:58:46.585Z,60.99
2022-08-03T06:01:33.529Z,61.13
2022-08-03T06:04:33.376Z,61.42
2022-08-03T06:07:25.398Z,61.50
2022-08-03T06:10:35.941Z,61.26
2022-08-03T06:13:22.640Z,61.33
2022-08-03T06:16:10.705Z,60.48
2022-08-03T06:18:57.990Z,60.00
2022-08-03T06:21:45.569Z,59.20
2022-08-03T06:24:55.970Z,59.41
2022-08-03T06:28:53.118Z,58.07
2022-08-03T06:31:35.413Z,58.04
2022-08-03T06:34:41.768Z,57.82
2022-08-03T06:37:30.404Z,58.64
2022-08-03T06:40:24.482Z,58.06
2022-08-03T06:43:16.054Z,58.05
2022-08-03T06:46:08.523Z,57.93
2022-08-03T06:48:56.802Z,57.28
2022-08-03T06:52:04.327Z,56.25
2022-08-03T06:54:53.550Z,55.86
2022-08-03T06:57:41.126Z,56.51
2022-08-03T07:00:32.200Z,55.95
2022-08-03T07:03:24.009Z,54.49
2022-08-03T07:06:14.595Z,55.15
2022-08-03T07:09:05.862Z,53.82
2022-08-03T07:12:00.029Z,53.72
2022-08-03T07:14:55.604Z,53.21
2022-08-03T07:17:51.123Z,53.22
2022-08-03T07:20:45.265Z,52.67
2022-08-03T07:23:38.549Z,51.54
2022-08-03T07:26:31.980Z,50.72
2022-08-03T07:29:26.573Z,50.11
2022-08-03T07:32:33.427Z,49.60
2022-08-03T07:35:51.532Z,50.10
2022-08-03T07:38:39.870Z,48.91
2022-08-03T07:41:38.611Z,49.21
2022-08-03T07:44:28.945Z,49.12
2022-08-03T07:47:36.072Z,48.93
2022-08-03T07:50:25.451Z,49.20
2022-08-03T07:53:11.598Z,48.25
2022-08-03T07:56:06.385Z,48.17
2022-08-03T07:58:57.866Z,48.33
2022-08-03T08:01:50.730Z,48.57
2022-08-03T08:04:37.076Z,47.98
2022-08-03T08:07:23.992Z,48.21
2022-08-03T08:10:11.152Z,48.34
2022-08-03T08:12:57.946Z,48.49
2022-08-03T08:15:46.689Z,47.33
2022-08-03T08:18:34.788Z,47.01
2022-08-03T08:21:24.311Z,46.86
2022-08-03T08:24:18.120Z,46.43
2022-08-03T08:27:07.516Z,46.11
2022-08-03T08:30:02.516Z,46.02
2022-08-03T08:32:55.483Z,46.44
2022-08-03T08:35:47.542Z,46.12
2022-08-03T08:38:36.283Z,45.21
2022-08-03T08:41:22.497Z,45.51
2022-08-03T08:44:10.270Z,44.94
2022-08-03T08:46:58.041Z,44.67
2022-08-03T08:50:03.830Z,44.26
2022-08-03T08:52:57.255Z,44.53
2022-08-03T08:55:58.852Z,44.53
2022-08-03T08:59:11.244Z,43.95
2022-08-03T09:01:59.112Z,44.54
2022-08-03T09:04:49.190Z,44.38
2022-08-03T09:07:37.303Z,43.92
2022-08-03T09:10:33.358Z,44.40
2022-08-03T09:13:21.651Z,44.24
2022-08-03T09:16:13.276Z,44.32
2022-08-03T09:19:13.311Z,44.32
2022-08-03T09:22:18.668Z,44.28
2022-08-03T09:25:24.457Z,44.59
2022-08-03T09:28:58.110Z,43.53
2022-08-03T09:31:43.164Z,43.83
2022-08-03T09:34:41.215Z,43.89
2022-08-03T09:38:11.859Z,43.53
2022-08-03T09:40:40.832Z,43.87
2022-08-03T09:43:33.634Z,43.27
2022-08-03T09:46:24.307Z,43.82
2022-08-03T09:49:13.987Z,43.44
2022-08-03T09:52:38.650Z,43.41
2022-08-03T09:56:36.163Z,43.03
2022-08-03T09:58:49.249Z,42.83
2022-08-03T10:01:41.555Z,43.15
2022-08-03T10:04:28.640Z,42.64
2022-08-03T10:07:15.194Z,42.68
2022-08-03T10:10:30.872Z,42.40
2022-08-03T10:13:15.923Z,42.55
2022-08-03T10:16:23.291Z,42.21
2022-08-03T10:19:14.716Z,42.83
2022-08-03T10:22:19.624Z,43.08
2022-08-03T10:25:16.955Z,43.00
2022-08-03T10:28:04.927Z,42.69
2022-08-03T10:30:53.741Z,42.71
2022-08-03T10:33:49.720Z,42.88
2022-08-03T10:36:40.247Z,42.97
2022-08-03T10:39:31.198Z,43.28
2022-08-03T10:42:16.897Z,43.12
2022-08-03T10:45:06.948Z,42.93
2022-08-03T10:47:54.222Z,43.18
2022-08-03T10:50:43.474Z,43.04
2022-08-03T10:53:40.624Z,43.02
2022-08-03T10:56:52.190Z,42.42
2022-08-03T10:59:47.106Z,42.51
2022-08-03T11:03:06.398Z,42.85
2022-08-03T11:05:54.510Z,42.98
2022-08-03T11:08:41.453Z,42.84
2022-08-03T11:11:28.717Z,42.88
2022-08-03T11:14:24.003Z,42.67
2022-08-03T11:17:14.540Z,42.93
2022-08-03T11:20:01.518Z,42.91
2022-08-03T11:22:51.588Z,42.82
2022-08-03T11:26:10.068Z,43.39
2022-08-03T11:29:31.004Z,43.11
2022-08-03T11:32:48.518Z,42.83
2022-08-03T11:35:47.254Z,43.28
2022-08-03T11:38:33.777Z,43.28
2022-08-03T11:41:42.913Z,43.08
2022-08-03T11:44:40.622Z,43.43
2022-08-03T11:47:28.709Z,43.71
2022-08-03T11:50:19.060Z,43.02
2022-08-03T11:53:06.100Z,42.55
2022-08-03T11:55:53.970Z,41.73
2022-08-03T11:59:17.209Z,41.42
2022-08-03T12:02:07.123Z,41.69
2022-08-03T12:04:58.611Z,41.93
2022-08-03T12:08:03.642Z,42.27
2022-08-03T12:10:52.533Z,42.14
2022-08-03T12:14:08.386Z,42.49
2022-08-03T12:16:52.482Z,42.49
2022-08-03T12:19:43.734Z,42.38
2022-08-03T12:22:42.360Z,42.56
2022-08-03T12:25:39.178Z,42.82
2022-08-03T12:28:37.044Z,42.49
2022-08-03T12:31:25.128Z,42.14
2022-08-03T12:34:11.469Z,42.25
2022-08-03T12:36:57.901Z,41.86
2022-08-03T12:40:00.493Z,41.92
2022-08-03T12:42:50.509Z,42.10
2022-08-03T12:45:36.966Z,42.24
2022-08-03T12:48:24.271Z,42.26
2022-08-03T12:51:14.467Z,42.74
2022-08-03T12:54:00.789Z,42.40
2022-08-03T12:57:01.671Z,41.97
2022-08-03T12:59:52.806Z,41.83
2022-08-03T13:02:39.495Z,41.40
2022-08-03T13:05:43.612Z,41.95
2022-08-03T13:08:34.047Z,42.17
2022-08-03T13:11:47.579Z,41.91
2022-08-03T13:14:32.529Z,41.77
2022-08-03T13:17:19.577Z,41.74
2022-08-03T13:20:06.323Z,41.59
2022-08-03T13:22:52.331Z,41.29
2022-08-03T13:25:38.719Z,41.12
2022-08-03T13:28:42.120Z,40.99
2022-08-03T13:31:28.106Z,41.53
2022-08-03T13:34:14.627Z,41.48
2022-08-03T13:37:09.831Z,41.84
2022-08-03T13:40:03.799Z,41.41
2022-08-03T13:42:50.856Z,42.02
2022-08-03T13:45:37.139Z,42.00
2022-08-03T13:48:37.096Z,41.88
2022-08-03T13:51:24.926Z,42.59
2022-08-03T13:54:11.013Z,42.15
2022-08-03T13:57:00.767Z,42.49
2022-08-03T14:00:16.671Z,42.67
2022-08-03T14:03:15.137Z,43.02
2022-08-03T14:06:01.295Z,42.99
2022-08-03T14:08:50.770Z,43.02
2022-08-03T14:12:41.392Z,42.72
2022-08-03T14:15:28.727Z,42.63
2022-08-03T14:18:16.113Z,42.79
2022-08-03T14:21:15.905Z,43.15
2022-08-03T14:24:02.754Z,42.96
2022-08-03T14:26:48.898Z,43.00
2022-08-03T14:29:34.957Z,43.34
2022-08-03T14:32:22.779Z,43.20
2022-08-03T14:35:09.677Z,43.14
2022-08-03T14:37:56.233Z,43.55
2022-08-03T14:40:42.481Z,43.74
2022-08-03T14:43:33.947Z,44.23
2022-08-03T14:46:20.836Z,43.91
2022-08-03T14:50:31.146Z,43.84
2022-08-03T14:52:21.209Z,43.73
2022-08-03T14:55:07.712Z,44.12
2022-08-03T14:57:53.479Z,44.21
2022-08-03T15:00:39.649Z,44.27
2022-08-03T15:03:25.750Z,44.01
2022-08-03T15:06:12.201Z,44.17
2022-08-03T15:09:21.471Z,44.34
2022-08-03T15:12:06.783Z,44.02
2022-08-03T15:14:52.677Z,44.09
2022-08-03T15:17:39.328Z,44.00
2022-08-03T15:20:46.902Z,44.01
2022-08-03T15:23:33.433Z,44.07
2022-08-03T15:26:41.397Z,44.18
2022-08-03T15:30:08.893Z,44.37
2022-08-03T15:32:41.611Z,44.15
2022-08-03T15:35:35.462Z,44.41
2022-08-03T15:38:26.523Z,44.34
2022-08-03T15:41:14.475Z,44.30
2022-08-03T15:44:04.201Z,44.37
2022-08-03T15:47:00.006Z,44.17
2022-08-03T15:49:45.943Z,44.12
2022-08-03T15:52:32.150Z,44.13
2022-08-03T15:55:17.726Z,43.89
2022-08-03T15:59:04.118Z,44.07
2022-08-03T16:01:11.189Z,43.96
2022-08-03T16:03:58.548Z,44.29
2022-08-03T16:06:44.458Z,43.41
2022-08-03T16:09:43.470Z,43.36
2022-08-03T16:12:29.958Z,43.07
2022-08-03T16:15:16.634Z,43.12
2022-08-03T16:18:06.027Z,43.17
2022-08-03T16:20:55.564Z,43.01
2022-08-03T16:23:47.336Z,42.98
2022-08-03T16:26:36.868Z,43.67
2022-08-03T16:29:23.815Z,43.08
2022-08-03T16:32:12.109Z,43.34
2022-08-03T16:35:03.208Z,43.24
2022-08-03T16:37:56.830Z,43.46
2022-08-03T16:40:43.373Z,43.82
2022-08-03T16:43:30.067Z,43.69
2022-08-03T16:46:16.252Z,43.83
2022-08-03T16:49:02.717Z,43.83
2022-08-03T16:51:50.447Z,43.37
2022-08-03T16:54:36.565Z,43.54
2022-08-03T16:57:56.265Z,43.94
2022-08-03T17:00:33.602Z,43.97
2022-08-03T17:03:24.480Z,44.21
2022-08-03T17:06:11.001Z,44.07
2022-08-03T17:08:58.978Z,44.18
2022-08-03T17:11:48.345Z,44.38
2022-08-03T17:14:34.660Z,44.60
2022-08-03T17:17:56.252Z,44.84
2022-08-03T17:20:40.951Z,45.13
2022-08-03T17:23:39.407Z,45.03
2022-08-03T17:26:30.595Z,45.34
2022-08-03T17:29:25.077Z,45.40
2022-08-03T17:32:18.082Z,45.29
2022-08-03T17:35:11.172Z,45.62
2022-08-03T17:38:03.732Z,45.29
2022-08-03T17:40:52.143Z,45.45
2022-08-03T17:44:13.352Z,45.80
2022-08-03T17:46:47.175Z,45.62
2022-08-03T17:49:40.173Z,45.68
2022-08-03T17:52:42.087Z,45.87
2022-08-03T17:59:08.642Z,45.52
2022-08-03T18:02:35.282Z,45.47
2022-08-03T18:05:22.249Z,45.86
2022-08-03T18:08:11.683Z,46.21
2022-08-03T18:11:21.983Z,46.57
2022-08-03T18:14:31.717Z,46.83
2022-08-03T18:17:55.948Z,47.23
2022-08-03T18:20:42.084Z,47.67
2022-08-03T18:23:37.210Z,47.96
2022-08-03T18:26:26.057Z,48.44
2022-08-03T18:29:14.158Z,48.49
2022-08-03T18:32:04.036Z,48.81
2022-08-03T18:34:58.703Z,49.00
2022-08-03T18:37:51.597Z,49.12
2022-08-03T18:40:48.783Z,49.38
2022-08-03T18:43:47.688Z,49.86
2022-08-03T18:47:18.307Z,49.94
2022-08-03T18:50:40.297Z,50.54
2022-08-03T18:54:02.564Z,50.27
2022-08-03T18:56:59.304Z,50.79
2022-08-03T18:59:55.938Z,50.99
2022-08-03T19:03:03.205Z,51.24
2022-08-03T19:06:08.569Z,51.44
2022-08-03T19:09:12.855Z,51.84
2022-08-03T19:12:11.069Z,51.87
2022-08-03T19:15:13.670Z,51.48
2022-08-03T19:18:10.514Z,52.26
2022-08-03T19:20:57.647Z,52.75
2022-08-03T19:23:46.051Z,52.61
2022-08-03T19:26:36.527Z,53.13
2022-08-03T19:29:24.418Z,53.77
2022-08-03T19:32:32.185Z,53.77
2022-08-03T19:35:51.411Z,54.09
2022-08-03T19:38:28.202Z,53.93
2022-08-03T19:41:18.253Z,54.50
2022-08-03T19:44:09.456Z,54.31
2022-08-03T19:47:10.020Z,54.53
2022-08-03T19:50:06.001Z,54.58
2022-08-03T19:53:05.073Z,54.62
2022-08-03T19:55:52.723Z,54.70
2022-08-03T19:58:39.330Z,54.94
2022-08-03T20:01:26.250Z,55.27
2022-08-03T20:04:15.841Z,55.86
2022-08-03T20:07:04.211Z,55.82
2022-08-03T20:09:56.595Z,55.76
2022-08-03T20:12:44.658Z,55.68
2022-08-03T20:15:32.264Z,55.97
2022-08-03T20:18:27.382Z,56.05
2022-08-03T20:21:19.691Z,55.99
2022-08-03T20:24:23.745Z,55.76
2022-08-03T20:27:16.004Z,55.80
2022-08-03T20:30:07.555Z,55.97
2022-08-03T20:32:56.115Z,55.51
2022-08-03T20:35:45.988Z,55.45
2022-08-03T20:38:46.865Z,55.34
2022-08-03T20:41:34.390Z,55.48
2022-08-03T20:44:25.917Z,55.50
2022-08-03T20:47:12.089Z,55.40
2022-08-03T20:50:10.607Z,55.80
2022-08-03T20:53:02.993Z,55.35
2022-08-03T20:56:02.096Z,55.28
2022-08-03T20:58:51.352Z,55.09
2022-08-03T21:01:39.233Z,55.23
2022-08-03T21:04:25.618Z,55.46
2022-08-03T21:07:19.053Z,55.68
2022-08-03T21:10:10.690Z,55.36
2022-08-03T21:12:55.766Z,45.44
2022-08-03T21:13:17.685Z,55.61
2022-08-03T21:16:13.496Z,55.44
2022-08-03T21:19:03.861Z,55.06
2022-08-03T21:21:52.011Z,55.43
2022-08-03T21:24:44.316Z,54.97
2022-08-03T21:27:31.840Z,54.92
2022-08-03T21:30:19.037Z,55.31
2022-08-03T21:33:08.094Z,55.18
2022-08-03T21:35:56.869Z,55.04
2022-08-03T21:38:44.365Z,55.32
2022-08-03T21:41:44.086Z,54.93
2022-08-03T21:44:32.477Z,55.31
2022-08-03T21:47:21.275Z,55.19
2022-08-03T21:50:10.681Z,55.23
2022-08-03T21:53:04.330Z,55.55
2022-08-03T21:56:22.111Z,55.57
2022-08-03T21:59:14.493Z,55.31
2022-08-03T22:02:00.601Z,55.18
2022-08-03T22:04:55.406Z,55.02
2022-08-03T22:07:51.099Z,55.06
2022-08-03T22:10:48.001Z,55.48
2022-08-03T22:13:43.755Z,55.21
2022-08-03T22:16:30.951Z,55.53
2022-08-03T22:19:20.215Z,55.04
2022-08-03T22:22:09.435Z,55.37
2022-08-03T22:25:06.046Z,55.19
2022-08-03T22:27:53.981Z,55.14
2022-08-03T22:30:43.920Z,55.00
2022-08-03T22:33:57.340Z,54.82
2022-08-03T22:36:44.138Z,54.57
2022-08-03T22:39:33.750Z,54.56
2022-08-03T22:42:21.846Z,55.04
2022-08-03T22:46:07.013Z,54.99
2022-08-03T22:48:22.691Z,55.14
2022-08-03T22:51:10.188Z,55.18
2022-08-03T22:53:57.989Z,55.08
2022-08-03T22:56:48.191Z,55.21
2022-08-03T22:59:40.012Z,54.85
2022-08-03T23:02:35.472Z,55.35
2022-08-03T23:06:00.727Z,55.21
2022-08-03T23:08:32.766Z,55.48
2022-08-03T23:11:19.637Z,55.39
2022-08-03T23:14:12.116Z,55.43
2022-08-03T23:17:04.355Z,55.51
2022-08-03T23:19:53.877Z,55.26
2022-08-03T23:22:43.304Z,55.52
2022-08-03T23:25:34.546Z,55.56
2022-08-03T23:28:22.416Z,55.74
2022-08-03T23:31:08.618Z,55.47
2022-08-03T23:34:16.466Z,55.76
2022-08-03T23:37:09.800Z,55.49
2022-08-03T23:39:57.309Z,55.89
2022-08-03T23:42:45.597Z,56.31
2022-08-03T23:45:34.817Z,55.82
2022-08-03T23:48:21.659Z,55.90
2022-08-03T23:51:14.056Z,55.74
2022-08-03T23:54:25.902Z,55.79
2022-08-03T23:58:02.500Z,55.87
